Time;durP1;ratioP1;P1;durP2;ratioP2;P2;SDS_P1;SDS_P2;PMS_P1;PMS_P2;Temp;Humidity;BMP_temperature;BMP_pressure;BME280_temperature;BME280_humidity;BME280_pressure;Samples;Min_cycle;Max_cycle;Signal;HPM_P1;HPM_P2
2022/06/26 00:01:01;;;;;;;9.55;7.40;;;;;;;;;;4998084;28;20465;-71
2022/06/26 00:03:28;;;;;;;9.93;7.80;;;;;;;;;;4991030;28;20108;-71
2022/06/26 00:05:55;;;;;;;10.18;8.32;;;;;;;;;;5009472;28;20054;-71
2022/06/26 00:08:21;;;;;;;9.88;7.70;;;;;;;;;;5011944;28;20499;-71
2022/06/26 00:10:48;;;;;;;8.50;7.32;;;;;;;;;;5008807;28;20057;-71
2022/06/26 00:13:14;;;;;;;12.13;8.70;;;;;;;;;;4998116;28;20133;-71
2022/06/26 00:15:40;;;;;;;10.10;8.18;;;;;;;;;;5015376;28;20048;-71
2022/06/26 00:18:06;;;;;;;9.60;8.45;;;;;;;;;;5015247;28;20041;-71
2022/06/26 00:20:33;;;;;;;17.63;9.85;;;;;;;;;;5002768;28;20049;-70
2022/06/26 00:22:59;;;;;;;12.73;8.85;;;;;;;;;;5015578;28;20056;-71
2022/06/26 00:25:25;;;;;;;14.13;9.55;;;;;;;;;;5004580;28;20046;-71
2022/06/26 00:27:51;;;;;;;15.05;10.07;;;;;;;;;;5023870;28;20072;-71
2022/06/26 00:30:18;;;;;;;11.25;8.70;;;;;;;;;;5015684;28;20483;-72
2022/06/26 00:32:44;;;;;;;13.02;8.48;;;;;;;;;;5001410;28;20054;-71
2022/06/26 00:35:10;;;;;;;11.75;8.77;;;;;;;;;;4993778;28;20050;-71
2022/06/26 00:37:36;;;;;;;12.13;8.95;;;;;;;;;;5004467;28;20065;-71
2022/06/26 00:40:02;;;;;;;16.35;9.73;;;;;;;;;;5019480;28;20037;-71
2022/06/26 00:42:28;;;;;;;11.52;9.63;;;;;;;;;;5004718;28;20049;-71
2022/06/26 00:44:55;;;;;;;11.63;9.43;;;;;;;;;;5018668;28;20096;-71
2022/06/26 00:47:22;;;;;;;11.18;9.75;;;;;;;;;;5022079;28;20269;-70
2022/06/26 00:49:48;;;;;;;13.68;10.07;;;;;;;;;;5018905;28;20037;-71
2022/06/26 00:52:16;;;;;;;9.52;8.52;;;;;;;;;;5006137;28;20158;-71
2022/06/26 00:54:42;;;;;;;11.38;9.57;;;;;;;;;;5020220;28;20059;-70
2022/06/26 00:57:08;;;;;;;17.13;10.88;;;;;;;;;;5018737;28;20050;-71
2022/06/26 00:59:36;;;;;;;16.00;11.40;;;;;;;;;;5022435;28;20570;-71
2022/06/26 01:02:02;;;;;;;11.63;9.23;;;;;;;;;;5025086;28;20410;-71
2022/06/26 01:04:28;;;;;;;14.30;10.18;;;;;;;;;;5011069;28;20255;-70
2022/06/26 01:06:54;;;;;;;12.32;10.07;;;;;;;;;;5011122;28;20077;-71
2022/06/26 01:09:20;;;;;;;11.93;9.85;;;;;;;;;;5019034;28;20073;-70
2022/06/26 01:11:46;;;;;;;17.38;11.70;;;;;;;;;;5017171;28;20470;-70
2022/06/26 01:14:12;;;;;;;11.15;9.68;;;;;;;;;;5011270;28;20510;-70
2022/06/26 01:16:41;;;;;;;11.20;10.00;;;;;;;;;;5012622;28;20037;-70
2022/06/26 01:19:08;;;;;;;15.20;11.15;;;;;;;;;;5015584;28;20092;-70
2022/06/26 01:21:35;;;;;;;15.00;10.93;;;;;;;;;;5018137;28;20483;-70
2022/06/26 01:24:01;;;;;;;13.40;11.98;;;;;;;;;;5012058;28;20551;-69
2022/06/26 01:26:28;;;;;;;12.68;10.55;;;;;;;;;;5018185;28;20091;-71
2022/06/26 01:28:54;;;;;;;12.77;11.45;;;;;;;;;;5018361;28;20563;-71
2022/06/26 01:31:20;;;;;;;14.07;12.13;;;;;;;;;;5024036;28;20046;-69
2022/06/26 01:33:47;;;;;;;15.55;12.18;;;;;;;;;;5011688;28;20049;-69
2022/06/26 01:36:13;;;;;;;16.42;13.27;;;;;;;;;;5023980;28;20049;-69
2022/06/26 01:38:39;;;;;;;16.08;14.38;;;;;;;;;;5010540;28;20458;-69
2022/06/26 01:41:05;;;;;;;17.15;15.35;;;;;;;;;;5023154;28;20411;-70
2022/06/26 01:43:32;;;;;;;16.13;13.52;;;;;;;;;;5016711;28;20402;-70
2022/06/26 01:45:59;;;;;;;18.77;15.55;;;;;;;;;;5011458;28;20461;-71
2022/06/26 01:48:25;;;;;;;19.25;15.43;;;;;;;;;;5010245;28;20111;-71
2022/06/26 01:50:52;;;;;;;19.77;15.52;;;;;;;;;;5028957;28;20052;-71
2022/06/26 01:53:18;;;;;;;20.73;14.57;;;;;;;;;;5013471;28;20490;-71
2022/06/26 01:55:44;;;;;;;17.33;14.50;;;;;;;;;;5009845;28;20433;-71
2022/06/26 01:58:10;;;;;;;15.95;13.30;;;;;;;;;;5017016;28;20049;-71
2022/06/26 02:00:37;;;;;;;16.00;14.35;;;;;;;;;;5017535;28;20056;-71
2022/06/26 02:03:04;;;;;;;16.90;14.32;;;;;;;;;;5021555;28;20506;-71
2022/06/26 02:05:30;;;;;;;19.15;15.35;;;;;;;;;;5016164;28;20046;-71
2022/06/26 02:07:56;;;;;;;20.02;17.05;;;;;;;;;;5016586;28;20057;-71
2022/06/26 02:15:54;;;;;;;24.80;19.50;;;;;;;;;;5016757;28;20041;-71
2022/06/26 02:18:20;;;;;;;29.13;22.42;;;;;;;;;;5017956;28;20092;-72
2022/06/26 02:20:46;;;;;;;33.55;24.27;;;;;;;;;;5012201;28;20396;-72
2022/06/26 02:23:13;;;;;;;25.30;21.88;;;;;;;;;;5015644;28;20049;-71
2022/06/26 02:25:39;;;;;;;26.30;21.75;;;;;;;;;;5013921;28;20045;-71
2022/06/26 02:28:06;;;;;;;30.52;23.02;;;;;;;;;;5019390;28;20081;-72
2022/06/26 02:30:32;;;;;;;31.00;24.38;;;;;;;;;;5021982;28;20593;-71
2022/06/26 02:32:58;;;;;;;30.10;23.02;;;;;;;;;;5011475;28;20081;-72
2022/06/26 02:35:25;;;;;;;34.03;26.10;;;;;;;;;;5014641;28;20414;-71
2022/06/26 02:37:51;;;;;;;26.13;21.98;;;;;;;;;;5017268;28;20038;-72
2022/06/26 02:40:19;;;;;;;31.25;25.63;;;;;;;;;;5010828;28;20402;-71
2022/06/26 02:42:45;;;;;;;38.15;28.00;;;;;;;;;;5013924;28;20510;-72
2022/06/26 02:45:12;;;;;;;32.97;25.85;;;;;;;;;;5009909;28;20077;-72
2022/06/26 02:47:38;;;;;;;34.45;27.08;;;;;;;;;;5028326;28;20124;-72
2022/06/26 02:50:04;;;;;;;28.67;23.25;;;;;;;;;;5016936;28;20506;-71
2022/06/26 02:52:31;;;;;;;29.27;21.85;;;;;;;;;;5016159;28;20053;-71
2022/06/26 02:54:57;;;;;;;37.42;26.52;;;;;;;;;;5016498;28;20076;-70
2022/06/26 02:57:23;;;;;;;33.72;25.65;;;;;;;;;;5029288;28;20042;-71
2022/06/26 02:59:49;;;;;;;34.60;26.05;;;;;;;;;;5006342;28;20041;-71
2022/06/26 03:02:15;;;;;;;28.83;23.30;;;;;;;;;;5016310;28;20129;-71
2022/06/26 03:04:42;;;;;;;36.35;28.42;;;;;;;;;;5010299;28;20281;-71
2022/06/26 03:07:08;;;;;;;34.70;25.60;;;;;;;;;;5011752;28;20060;-72
2022/06/26 03:09:34;;;;;;;39.42;26.83;;;;;;;;;;4998938;28;20107;-72
2022/06/26 03:12:00;;;;;;;34.10;24.17;;;;;;;;;;4991716;28;20050;-71
2022/06/26 03:14:26;;;;;;;30.92;25.13;;;;;;;;;;5022614;28;20041;-70
2022/06/26 03:16:53;;;;;;;25.40;21.67;;;;;;;;;;5016242;28;20081;-71
2022/06/26 03:19:19;;;;;;;28.95;21.88;;;;;;;;;;5010910;28;20509;-71
2022/06/26 03:21:45;;;;;;;27.42;22.30;;;;;;;;;;5016002;28;20041;-71
2022/06/26 03:24:11;;;;;;;28.17;19.80;;;;;;;;;;4999954;28;20053;-71
2022/06/26 03:26:38;;;;;;;24.25;18.65;;;;;;;;;;5020501;28;20552;-71
2022/06/26 03:29:08;;;;;;;21.45;16.60;;;;;;;;;;4993095;28;20046;-71
2022/06/26 03:31:34;;;;;;;21.38;17.10;;;;;;;;;;4998044;28;20552;-71
2022/06/26 03:34:00;;;;;;;18.63;15.48;;;;;;;;;;5010645;28;20045;-71
2022/06/26 03:36:28;;;;;;;19.65;15.13;;;;;;;;;;4992948;28;20100;-70
2022/06/26 03:38:54;;;;;;;17.20;13.80;;;;;;;;;;4991564;28;20053;-70
2022/06/26 03:41:20;;;;;;;17.52;13.77;;;;;;;;;;5022030;28;20042;-70
2022/06/26 03:43:46;;;;;;;18.50;14.52;;;;;;;;;;5020542;28;20057;-71
2022/06/26 03:46:13;;;;;;;19.48;12.95;;;;;;;;;;4998193;28;20041;-70
2022/06/26 03:48:39;;;;;;;15.80;13.55;;;;;;;;;;5004087;28;20049;-71
2022/06/26 03:51:05;;;;;;;18.40;12.50;;;;;;;;;;4998251;28;20038;-71
2022/06/26 03:53:32;;;;;;;16.38;12.60;;;;;;;;;;5008690;28;20053;-71
2022/06/26 03:55:58;;;;;;;15.70;12.98;;;;;;;;;;5020672;28;20089;-71
2022/06/26 03:58:24;;;;;;;14.95;11.95;;;;;;;;;;5024770;28;20057;-71
2022/06/26 04:00:51;;;;;;;16.70;11.02;;;;;;;;;;5015159;28;20462;-71
2022/06/26 04:03:17;;;;;;;16.10;11.88;;;;;;;;;;5015356;28;20049;-71
2022/06/26 04:05:43;;;;;;;14.85;11.23;;;;;;;;;;5010854;28;20046;-71
2022/06/26 04:08:09;;;;;;;17.13;12.20;;;;;;;;;;5018863;28;20448;-71
2022/06/26 04:10:35;;;;;;;15.85;11.73;;;;;;;;;;5010267;28;20588;-70
2022/06/26 04:13:02;;;;;;;16.95;11.27;;;;;;;;;;5023367;28;20045;-71
2022/06/26 04:15:29;;;;;;;11.32;10.23;;;;;;;;;;5011633;28;20050;-71
2022/06/26 04:17:55;;;;;;;16.02;11.57;;;;;;;;;;5013436;28;20291;-72
2022/06/26 04:20:22;;;;;;;14.77;10.73;;;;;;;;;;5025991;28;20044;-71
2022/06/26 04:23:03;;;;;;;15.18;11.48;;;;;;;;;;5011333;28;20088;-71
2022/06/26 04:25:30;;;;;;;12.15;10.40;;;;;;;;;;5017388;28;20042;-70
2022/06/26 04:27:56;;;;;;;12.68;10.68;;;;;;;;;;5022097;28;20494;-71
2022/06/26 04:30:23;;;;;;;14.80;10.32;;;;;;;;;;5015532;28;20045;-71
2022/06/26 04:32:49;;;;;;;14.52;10.48;;;;;;;;;;5024655;28;20399;-71
2022/06/26 04:35:15;;;;;;;15.00;11.38;;;;;;;;;;5012844;28;20038;-71
2022/06/26 04:37:42;;;;;;;13.93;10.88;;;;;;;;;;5021030;28;20534;-70
2022/06/26 04:40:09;;;;;;;16.58;11.98;;;;;;;;;;5023425;28;20048;-71
2022/06/26 04:42:35;;;;;;;16.02;12.15;;;;;;;;;;5000863;28;20566;-72
2022/06/26 04:45:01;;;;;;;15.85;11.80;;;;;;;;;;5028053;28;20046;-70
2022/06/26 04:47:27;;;;;;;18.33;11.90;;;;;;;;;;5017799;28;20057;-70
2022/06/26 04:49:53;;;;;;;13.93;10.52;;;;;;;;;;5020006;28;20057;-71
2022/06/26 04:52:19;;;;;;;12.07;9.60;;;;;;;;;;5016584;28;20293;-71
2022/06/26 04:54:45;;;;;;;12.38;8.50;;;;;;;;;;5013531;28;20050;-71
2022/06/26 04:57:11;;;;;;;27.67;11.98;;;;;;;;;;5013888;28;20422;-71
2022/06/26 04:59:37;;;;;;;16.98;10.30;;;;;;;;;;5000725;28;20042;-71
2022/06/26 05:02:05;;;;;;;14.95;9.40;;;;;;;;;;5018554;28;20092;-72
2022/06/26 05:04:31;;;;;;;11.82;9.30;;;;;;;;;;5000349;28;20048;-71
2022/06/26 05:06:57;;;;;;;12.95;8.95;;;;;;;;;;5006355;28;20049;-71
2022/06/26 05:09:23;;;;;;;12.43;9.07;;;;;;;;;;4985276;28;20406;-71
2022/06/26 05:11:49;;;;;;;12.90;9.35;;;;;;;;;;5018437;28;20092;-71
2022/06/26 05:14:15;;;;;;;14.07;10.57;;;;;;;;;;4999955;28;20080;-71
2022/06/26 05:16:41;;;;;;;28.00;13.30;;;;;;;;;;4994427;28;20486;-71
2022/06/26 05:19:07;;;;;;;15.88;10.15;;;;;;;;;;5019938;28;20048;-71
2022/06/26 05:21:33;;;;;;;23.02;11.95;;;;;;;;;;5011358;28;20038;-71
2022/06/26 05:24:00;;;;;;;11.38;9.05;;;;;;;;;;4998926;28;20044;-71
2022/06/26 05:26:26;;;;;;;25.48;11.20;;;;;;;;;;5019210;28;20446;-71
2022/06/26 05:28:52;;;;;;;10.90;8.57;;;;;;;;;;5012045;28;20425;-71
2022/06/26 05:31:18;;;;;;;9.88;8.35;;;;;;;;;;5002802;28;20501;-71
2022/06/26 05:33:44;;;;;;;10.73;8.07;;;;;;;;;;5019569;28;20045;-72
2022/06/26 05:36:10;;;;;;;17.95;10.48;;;;;;;;;;5018115;28;20053;-71
2022/06/26 05:38:37;;;;;;;11.40;7.80;;;;;;;;;;5021549;28;20057;-71
2022/06/26 05:41:03;;;;;;;23.23;9.15;;;;;;;;;;4983944;28;20061;-71
2022/06/26 05:43:29;;;;;;;14.25;7.95;;;;;;;;;;4995851;28;20038;-72
2022/06/26 05:45:55;;;;;;;8.98;7.13;;;;;;;;;;5011599;28;20124;-74
2022/06/26 05:48:22;;;;;;;10.30;7.10;;;;;;;;;;5017873;28;20132;-70
2022/06/26 05:50:48;;;;;;;10.27;6.65;;;;;;;;;;4993436;28;20058;-71
2022/06/26 05:53:14;;;;;;;7.22;6.38;;;;;;;;;;5015367;28;20057;-71
2022/06/26 05:55:40;;;;;;;10.02;6.97;;;;;;;;;;5017318;28;20041;-71
2022/06/26 05:58:06;;;;;;;8.52;6.80;;;;;;;;;;5029108;28;20045;-71
2022/06/26 06:00:33;;;;;;;8.02;7.22;;;;;;;;;;5017147;28;20103;-72
2022/06/26 06:02:59;;;;;;;14.05;8.77;;;;;;;;;;5015919;28;20045;-71
2022/06/26 06:05:25;;;;;;;19.40;10.35;;;;;;;;;;5021764;28;20042;-71
2022/06/26 06:07:52;;;;;;;13.10;9.20;;;;;;;;;;5017434;28;20045;-71
2022/06/26 06:10:19;;;;;;;11.98;9.73;;;;;;;;;;5024784;28;20041;-70
2022/06/26 06:12:46;;;;;;;14.00;10.15;;;;;;;;;;5013065;28;20049;-71
2022/06/26 06:15:12;;;;;;;16.45;10.57;;;;;;;;;;5022130;28;20478;-71
2022/06/26 06:17:40;;;;;;;14.10;11.38;;;;;;;;;;5015928;28;20120;-71
2022/06/26 06:20:18;;;;;;;14.40;11.55;;;;;;;;;;5023136;28;20140;-71
2022/06/26 06:22:54;;;;;;;14.70;11.57;;;;;;;;;;5002219;28;20103;-71
2022/06/26 06:25:23;;;;;;;13.95;12.43;;;;;;;;;;5019596;28;20046;-71
2022/06/26 06:27:50;;;;;;;14.68;12.30;;;;;;;;;;5015509;28;20046;-71
2022/06/26 06:30:16;;;;;;;14.55;12.52;;;;;;;;;;5022999;28;20054;-71
2022/06/26 06:32:43;;;;;;;14.57;12.35;;;;;;;;;;5015766;28;20081;-72
2022/06/26 06:35:11;;;;;;;15.80;12.70;;;;;;;;;;5008539;28;20104;-71
2022/06/26 06:37:38;;;;;;;17.08;12.98;;;;;;;;;;5014068;28;20052;-72
2022/06/26 06:40:04;;;;;;;15.35;13.48;;;;;;;;;;5022137;28;20053;-72
2022/06/26 06:42:30;;;;;;;16.27;13.63;;;;;;;;;;5007847;28;20046;-71
2022/06/26 06:44:56;;;;;;;16.75;13.73;;;;;;;;;;5011097;28;20048;-71
2022/06/26 06:47:22;;;;;;;17.45;14.07;;;;;;;;;;5009738;28;20491;-72
2022/06/26 06:49:48;;;;;;;16.55;14.85;;;;;;;;;;5008710;28;20042;-71
2022/06/26 06:52:14;;;;;;;17.23;14.63;;;;;;;;;;5001084;28;20058;-70
2022/06/26 06:54:40;;;;;;;19.27;15.18;;;;;;;;;;4990836;28;20112;-71
2022/06/26 06:57:06;;;;;;;17.70;15.55;;;;;;;;;;4973726;28;20309;-72
2022/06/26 06:59:32;;;;;;;17.50;14.15;;;;;;;;;;4990805;28;20415;-72
2022/06/26 07:01:58;;;;;;;18.73;14.93;;;;;;;;;;4991061;28;20513;-71
2022/06/26 07:04:24;;;;;;;15.43;13.10;;;;;;;;;;4973055;28;20051;-72
2022/06/26 07:06:50;;;;;;;17.65;14.40;;;;;;;;;;4957415;28;20526;-71
2022/06/26 07:09:16;;;;;;;15.57;13.07;;;;;;;;;;4957370;28;20058;-70
2022/06/26 07:11:42;;;;;;;15.93;12.45;;;;;;;;;;4990554;28;20046;-71
2022/06/26 07:14:09;;;;;;;15.55;13.43;;;;;;;;;;4957469;28;20390;-71
2022/06/26 07:16:35;;;;;;;15.63;13.25;;;;;;;;;;4990156;28;20050;-71
2022/06/26 07:19:01;;;;;;;17.77;14.20;;;;;;;;;;4990415;28;20038;-71
2022/06/26 07:21:27;;;;;;;16.63;14.15;;;;;;;;;;4979224;28;20128;-71
2022/06/26 07:23:53;;;;;;;15.50;12.60;;;;;;;;;;5009768;28;20041;-71
2022/06/26 07:26:19;;;;;;;15.63;13.00;;;;;;;;;;4992024;28;20049;-71
2022/06/26 07:28:46;;;;;;;15.32;13.38;;;;;;;;;;4991593;28;20305;-71
2022/06/26 07:31:11;;;;;;;14.23;12.73;;;;;;;;;;4999961;28;20041;-70
2022/06/26 07:36:22;;;;;;;14.55;11.68;;;;;;;;;;4990824;28;20121;-71
2022/06/26 07:38:48;;;;;;;16.02;13.20;;;;;;;;;;4972851;28;20101;-71
2022/06/26 07:41:14;;;;;;;15.80;13.13;;;;;;;;;;4973023;28;20097;-71
2022/06/26 07:43:40;;;;;;;14.02;12.35;;;;;;;;;;4979070;28;20104;-70
2022/06/26 07:46:06;;;;;;;12.07;10.85;;;;;;;;;;4991848;28;20053;-71
2022/06/26 07:48:33;;;;;;;14.70;12.55;;;;;;;;;;4989910;28;20552;-71
2022/06/26 07:50:59;;;;;;;15.77;13.23;;;;;;;;;;4991449;28;20517;-71
2022/06/26 07:53:25;;;;;;;19.70;14.40;;;;;;;;;;4991345;28;20051;-70
2022/06/26 07:55:51;;;;;;;17.20;14.90;;;;;;;;;;5009008;28;20046;-71
2022/06/26 07:58:17;;;;;;;17.25;13.85;;;;;;;;;;5008865;28;20049;-70
2022/06/26 08:00:43;;;;;;;14.50;13.00;;;;;;;;;;4972531;28;20050;-73
2022/06/26 08:03:10;;;;;;;15.02;13.05;;;;;;;;;;4972131;28;20053;-71
2022/06/26 08:05:36;;;;;;;18.23;13.88;;;;;;;;;;4972439;28;20549;-71
2022/06/26 08:08:03;;;;;;;16.42;13.70;;;;;;;;;;4972728;28;20484;-71
2022/06/26 08:10:29;;;;;;;16.63;13.80;;;;;;;;;;4972366;28;20046;-71
2022/06/26 08:12:56;;;;;;;14.18;11.98;;;;;;;;;;4991411;28;20057;-70
2022/06/26 08:15:22;;;;;;;14.68;12.90;;;;;;;;;;4991287;28;20053;-71
2022/06/26 08:17:48;;;;;;;13.55;12.27;;;;;;;;;;5008174;28;20057;-70
2022/06/26 08:20:14;;;;;;;14.10;12.70;;;;;;;;;;5009023;28;20462;-70
2022/06/26 08:22:40;;;;;;;13.52;12.10;;;;;;;;;;5008395;28;20045;-71
2022/06/26 08:25:06;;;;;;;12.73;11.35;;;;;;;;;;4975032;28;20057;-71
2022/06/26 08:27:33;;;;;;;21.73;12.63;;;;;;;;;;5008274;28;20058;-71
2022/06/26 08:29:59;;;;;;;13.73;11.90;;;;;;;;;;4974175;28;20045;-71
2022/06/26 08:32:25;;;;;;;16.10;12.70;;;;;;;;;;5008490;28;20121;-71
2022/06/26 08:34:52;;;;;;;13.68;12.27;;;;;;;;;;5008746;28;20042;-70
2022/06/26 08:37:18;;;;;;;15.18;12.80;;;;;;;;;;4991213;28;20406;-71
2022/06/26 08:39:44;;;;;;;15.75;12.18;;;;;;;;;;4991345;28;20121;-70
2022/06/26 08:42:10;;;;;;;10.95;8.90;;;;;;;;;;4991080;28;20045;-71
2022/06/26 08:44:41;;;;;;;12.82;10.90;;;;;;;;;;5008402;28;20038;-70
2022/06/26 08:47:07;;;;;;;21.80;12.15;;;;;;;;;;5008247;28;20042;-71
2022/06/26 08:49:33;;;;;;;9.88;8.95;;;;;;;;;;5007885;28;20486;-72
2022/06/26 08:51:59;;;;;;;13.15;10.43;;;;;;;;;;4990696;28;20107;-71
2022/06/26 08:54:27;;;;;;;10.75;9.65;;;;;;;;;;4972528;28;20050;-71
2022/06/26 08:56:53;;;;;;;9.50;7.60;;;;;;;;;;4984659;28;20502;-71
2022/06/26 08:59:19;;;;;;;28.05;10.93;;;;;;;;;;4992339;28;20092;-71
2022/06/26 09:01:45;;;;;;;7.10;6.50;;;;;;;;;;4993614;28;20490;-71
2022/06/26 09:04:12;;;;;;;8.27;6.28;;;;;;;;;;5012211;28;20046;-71
2022/06/26 09:06:39;;;;;;;7.28;6.57;;;;;;;;;;4994282;28;20049;-71
2022/06/26 09:09:18;;;;;;;5.90;5.40;;;;;;;;;;4994346;28;20046;-70
2022/06/26 09:11:45;;;;;;;8.25;5.63;;;;;;;;;;5011946;28;20060;-71
2022/06/26 09:14:12;;;;;;;10.40;7.25;;;;;;;;;;5012112;28;20534;-71
2022/06/26 09:16:39;;;;;;;6.90;5.63;;;;;;;;;;4993735;28;20054;-71
2022/06/26 09:19:06;;;;;;;5.50;4.72;;;;;;;;;;4999859;28;20050;-71
2022/06/26 09:21:32;;;;;;;7.45;5.35;;;;;;;;;;4991610;28;20590;-72
2022/06/26 09:23:58;;;;;;;5.85;5.25;;;;;;;;;;4959300;28;20137;-71
2022/06/26 09:26:24;;;;;;;4.90;4.40;;;;;;;;;;4959513;28;20129;-72
2022/06/26 09:28:50;;;;;;;8.52;6.57;;;;;;;;;;4992734;28;20125;-71
2022/06/26 09:31:20;;;;;;;6.43;5.72;;;;;;;;;;4959009;28;20053;-72
2022/06/26 09:33:46;;;;;;;5.88;4.40;;;;;;;;;;4991361;28;20062;-72
2022/06/26 09:36:17;;;;;;;6.22;4.20;;;;;;;;;;4959165;28;20047;-71
2022/06/26 09:38:50;;;;;;;9.23;4.50;;;;;;;;;;4992583;28;20495;-71
2022/06/26 09:41:16;;;;;;;4.55;3.85;;;;;;;;;;4991360;28;20082;-71
2022/06/26 09:43:42;;;;;;;18.20;7.28;;;;;;;;;;4990607;28;20077;-70
2022/06/26 09:46:10;;;;;;;5.85;3.78;;;;;;;;;;4992752;28;20046;-71
2022/06/26 09:48:36;;;;;;;2.60;2.33;;;;;;;;;;4991342;28;20446;-70
2022/06/26 09:51:03;;;;;;;6.07;2.97;;;;;;;;;;4991402;28;20431;-71
2022/06/26 09:53:30;;;;;;;4.57;2.92;;;;;;;;;;4990963;28;20057;-71
2022/06/26 09:55:57;;;;;;;8.35;4.13;;;;;;;;;;4992574;28;20077;-71
2022/06/26 09:58:25;;;;;;;6.85;4.03;;;;;;;;;;4991663;28;20751;-70
2022/06/26 10:06:25;;;;;;;6.85;3.75;;;;;;;;;;4993535;28;20046;-72
2022/06/26 10:08:51;;;;;;;4.72;3.72;;;;;;;;;;4993149;28;20049;-71
2022/06/26 10:11:17;;;;;;;3.53;3.22;;;;;;;;;;5010066;28;20172;-70
2022/06/26 10:13:43;;;;;;;4.13;3.72;;;;;;;;;;4992334;28;20602;-71
2022/06/26 10:16:22;;;;;;;4.45;3.72;;;;;;;;;;4993224;28;20053;-71
2022/06/26 10:18:51;;;;;;;6.05;4.93;;;;;;;;;;4993026;28;20042;-71
2022/06/26 10:21:17;;;;;;;4.07;3.67;;;;;;;;;;4993033;28;20062;-71
2022/06/26 10:23:43;;;;;;;4.45;3.70;;;;;;;;;;5010536;28;20127;-72
2022/06/26 10:26:16;;;;;;;5.47;3.83;;;;;;;;;;4993088;28;20046;-72
2022/06/26 10:29:02;;;;;;;6.45;4.78;;;;;;;;;;4992491;28;20038;-71
2022/06/26 10:31:50;;;;;;;6.63;3.78;;;;;;;;;;4992758;28;20129;-71
2022/06/26 10:34:19;;;;;;;4.90;3.03;;;;;;;;;;5010899;28;20038;-71
2022/06/26 10:36:56;;;;;;;5.00;3.75;;;;;;;;;;4992917;28;20143;-71
2022/06/26 10:39:22;;;;;;;3.47;3.17;;;;;;;;;;4992996;28;20046;-71
2022/06/26 10:44:39;;;;;;;4.93;3.50;;;;;;;;;;4992475;28;20046;-71
2022/06/26 10:47:13;;;;;;;4.25;3.20;;;;;;;;;;4992714;28;20099;-72
2022/06/26 10:49:46;;;;;;;6.10;4.25;;;;;;;;;;4992771;28;20049;-71
2022/06/26 10:52:22;;;;;;;3.90;3.50;;;;;;;;;;4997111;28;20062;-71
2022/06/26 10:54:50;;;;;;;4.03;3.60;;;;;;;;;;5010717;28;20050;-71
2022/06/26 10:57:20;;;;;;;6.07;4.23;;;;;;;;;;5010374;28;20410;-71
2022/06/26 10:59:46;;;;;;;4.95;3.65;;;;;;;;;;4993313;28;20557;-71
2022/06/26 11:02:13;;;;;;;5.18;3.58;;;;;;;;;;5009479;28;20046;-71
2022/06/26 11:04:49;;;;;;;4.28;3.88;;;;;;;;;;5010628;28;20038;-71
2022/06/26 11:07:15;;;;;;;6.18;3.53;;;;;;;;;;4993300;28;20049;-71
2022/06/26 11:09:42;;;;;;;4.47;3.38;;;;;;;;;;5009046;28;20049;-71
2022/06/26 11:12:08;;;;;;;3.83;3.03;;;;;;;;;;4992226;28;20313;-71
2022/06/26 11:14:34;;;;;;;5.82;3.50;;;;;;;;;;5010645;28;20164;-71
2022/06/26 11:17:00;;;;;;;5.40;3.22;;;;;;;;;;4993007;28;20133;-71
2022/06/26 11:19:28;;;;;;;6.72;4.00;;;;;;;;;;5010485;28;20042;-72
2022/06/26 11:22:04;;;;;;;4.88;3.55;;;;;;;;;;5010416;28;20077;-72
2022/06/26 11:24:30;;;;;;;5.45;3.45;;;;;;;;;;4992625;28;20556;-72
2022/06/26 11:26:56;;;;;;;4.18;3.58;;;;;;;;;;4992023;28;20510;-71
2022/06/26 11:29:22;;;;;;;4.72;3.33;;;;;;;;;;5010379;28;20541;-70
2022/06/26 11:31:48;;;;;;;5.47;3.65;;;;;;;;;;5010458;28;20121;-71
2022/06/26 11:34:15;;;;;;;4.50;3.40;;;;;;;;;;4997221;28;20482;-71
2022/06/26 11:36:58;;;;;;;5.82;2.70;;;;;;;;;;5012119;28;20042;-72
2022/06/26 11:39:24;;;;;;;4.18;2.90;;;;;;;;;;5019228;28;20502;-70
2022/06/26 11:41:51;;;;;;;5.22;2.60;;;;;;;;;;5009966;28;20054;-71
2022/06/26 11:44:17;;;;;;;4.90;3.20;;;;;;;;;;4992429;28;20510;-71
2022/06/26 11:46:45;;;;;;;3.50;2.70;;;;;;;;;;5009942;28;20073;-71
2022/06/26 11:49:11;;;;;;;5.68;3.55;;;;;;;;;;4993018;28;20046;-72
2022/06/26 11:51:38;;;;;;;4.50;3.78;;;;;;;;;;4991998;28;20064;-72
2022/06/26 11:54:04;;;;;;;3.85;2.97;;;;;;;;;;4991817;28;20502;-71
2022/06/26 11:56:31;;;;;;;4.80;2.90;;;;;;;;;;5009684;28;20049;-71
2022/06/26 11:59:00;;;;;;;3.30;2.67;;;;;;;;;;4993378;28;20069;-71
2022/06/26 12:01:33;;;;;;;4.60;2.80;;;;;;;;;;4993077;28;20054;-71
2022/06/26 12:03:59;;;;;;;5.70;2.92;;;;;;;;;;4993094;28;20054;-71
2022/06/26 12:06:35;;;;;;;6.03;3.10;;;;;;;;;;5010162;28;20041;-71
2022/06/26 12:09:03;;;;;;;4.65;2.72;;;;;;;;;;5009644;28;20088;-72
2022/06/26 12:11:29;;;;;;;4.20;2.57;;;;;;;;;;4992324;28;20049;-71
2022/06/26 12:13:55;;;;;;;4.40;2.50;;;;;;;;;;5009730;28;20049;-72
2022/06/26 12:16:21;;;;;;;3.75;2.50;;;;;;;;;;5009867;28;20616;-71
2022/06/26 12:18:49;;;;;;;3.17;1.95;;;;;;;;;;4991896;28;20063;-70
2022/06/26 12:21:15;;;;;;;10.07;3.00;;;;;;;;;;4992293;28;20049;-71
2022/06/26 12:23:43;;;;;;;4.47;2.13;;;;;;;;;;4991367;28;20046;-72
2022/06/26 12:26:10;;;;;;;3.53;2.40;;;;;;;;;;4992451;28;20042;-72
2022/06/26 12:28:43;;;;;;;3.55;2.35;;;;;;;;;;5009530;28;20050;-72
2022/06/26 12:31:10;;;;;;;4.15;2.25;;;;;;;;;;5009622;28;20048;-72
2022/06/26 12:33:36;;;;;;;4.35;2.92;;;;;;;;;;4992358;28;20097;-72
2022/06/26 12:36:02;;;;;;;4.72;2.20;;;;;;;;;;4996388;28;20046;-72
2022/06/26 12:38:28;;;;;;;4.22;2.10;;;;;;;;;;5013083;28;20046;-72
2022/06/26 12:40:55;;;;;;;3.78;2.65;;;;;;;;;;5013643;28;20053;-71
2022/06/26 12:43:21;;;;;;;5.05;2.85;;;;;;;;;;4995862;28;20052;-71
2022/06/26 12:45:47;;;;;;;4.32;3.00;;;;;;;;;;5013215;28;20048;-71
2022/06/26 12:48:13;;;;;;;4.60;3.20;;;;;;;;;;4996321;28;20049;-71
2022/06/26 12:50:39;;;;;;;8.27;3.30;;;;;;;;;;4997914;28;20041;-71
2022/06/26 12:53:05;;;;;;;5.30;2.80;;;;;;;;;;5010386;28;20391;-72
2022/06/26 12:55:32;;;;;;;5.00;3.08;;;;;;;;;;5016566;28;20049;-71
2022/06/26 12:57:58;;;;;;;7.43;3.88;;;;;;;;;;5015394;28;20087;-71
2022/06/26 13:00:23;;;;;;;3.85;2.97;;;;;;;;;;5015408;28;20053;-69
2022/06/26 13:02:49;;;;;;;5.28;3.08;;;;;;;;;;5012939;28;20082;-70
2022/06/26 13:05:15;;;;;;;5.68;2.90;;;;;;;;;;5013076;28;20103;-71
2022/06/26 13:07:42;;;;;;;6.55;3.33;;;;;;;;;;5012105;28;20038;-70
2022/06/26 13:10:08;;;;;;;4.53;2.90;;;;;;;;;;5012001;28;20058;-71
2022/06/26 13:12:34;;;;;;;6.40;3.45;;;;;;;;;;5011242;28;20050;-70
2022/06/26 13:15:00;;;;;;;4.03;3.17;;;;;;;;;;5013045;28;20073;-71
2022/06/26 13:17:26;;;;;;;6.20;3.10;;;;;;;;;;5012927;28;20123;-71
2022/06/26 13:19:52;;;;;;;6.80;3.47;;;;;;;;;;5011949;28;20061;-71
2022/06/26 13:22:18;;;;;;;9.38;4.15;;;;;;;;;;5010805;28;20054;-71
2022/06/26 13:24:44;;;;;;;6.65;3.70;;;;;;;;;;5012486;28;20406;-71
2022/06/26 13:27:10;;;;;;;5.53;3.70;;;;;;;;;;5011327;28;20045;-71
2022/06/26 13:29:37;;;;;;;6.32;3.50;;;;;;;;;;5027569;28;20104;-71
2022/06/26 13:32:04;;;;;;;6.93;3.75;;;;;;;;;;5011607;28;20080;-71
2022/06/26 13:34:30;;;;;;;7.43;4.30;;;;;;;;;;5011012;28;20303;-71
2022/06/26 13:36:56;;;;;;;6.45;4.20;;;;;;;;;;5010976;28;20054;-71
2022/06/26 13:39:23;;;;;;;6.32;4.05;;;;;;;;;;5015430;28;20053;-71
2022/06/26 13:41:49;;;;;;;7.82;3.83;;;;;;;;;;5018268;28;20068;-71
2022/06/26 13:44:15;;;;;;;5.15;3.15;;;;;;;;;;5016489;28;20103;-71
2022/06/26 13:46:41;;;;;;;18.88;6.38;;;;;;;;;;5009185;28;20065;-71
2022/06/26 13:49:08;;;;;;;5.50;3.20;;;;;;;;;;5015865;28;20042;-71
2022/06/26 13:51:34;;;;;;;4.80;3.42;;;;;;;;;;5011037;28;20495;-71
2022/06/26 13:54:00;;;;;;;6.60;3.65;;;;;;;;;;4994700;28;20121;-71
2022/06/26 13:56:26;;;;;;;5.07;3.80;;;;;;;;;;5011588;28;20511;-71
2022/06/26 13:58:52;;;;;;;4.72;3.72;;;;;;;;;;4994635;28;20131;-71
2022/06/26 14:01:18;;;;;;;6.70;4.10;;;;;;;;;;5012851;28;20172;-71
2022/06/26 14:03:44;;;;;;;6.72;4.25;;;;;;;;;;5013790;28;20046;-72
2022/06/26 14:06:11;;;;;;;6.13;3.90;;;;;;;;;;5003827;28;20049;-73
2022/06/26 14:08:37;;;;;;;6.80;3.60;;;;;;;;;;5000645;28;20600;-73
2022/06/26 14:11:03;;;;;;;4.00;3.60;;;;;;;;;;5000025;28;20107;-71
2022/06/26 14:13:29;;;;;;;7.60;4.10;;;;;;;;;;4999264;28;20045;-72
2022/06/26 14:15:55;;;;;;;6.68;4.03;;;;;;;;;;4996270;28;20053;-72
2022/06/26 14:18:21;;;;;;;7.72;4.28;;;;;;;;;;5016641;28;20050;-71
2022/06/26 14:20:47;;;;;;;5.63;3.53;;;;;;;;;;4998847;28;20303;-71
2022/06/26 14:26:03;;;;;;;13.45;5.25;;;;;;;;;;5011790;28;20046;-72
2022/06/26 14:28:33;;;;;;;4.25;3.40;;;;;;;;;;5010223;28;20085;-71
2022/06/26 14:31:00;;;;;;;6.55;3.88;;;;;;;;;;4993907;28;20045;-71
2022/06/26 14:33:26;;;;;;;4.40;3.70;;;;;;;;;;4993323;28;20081;-71
2022/06/26 14:35:52;;;;;;;7.18;3.88;;;;;;;;;;4994078;28;20398;-71
2022/06/26 14:38:18;;;;;;;12.77;5.03;;;;;;;;;;4993855;28;20132;-71
2022/06/26 14:40:45;;;;;;;5.07;3.30;;;;;;;;;;4993434;28;20079;-71
2022/06/26 14:43:11;;;;;;;40.70;12.43;;;;;;;;;;5011517;28;20126;-71
2022/06/26 14:45:38;;;;;;;5.25;3.95;;;;;;;;;;4993270;28;20514;-72